createdAt,value
2022-12-24T00:00:43.507Z,0.96
2022-12-24T00:03:16.469Z,0.93
2022-12-24T00:05:47.227Z,0.89
2022-12-24T00:08:17.379Z,0.85
2022-12-24T00:10:47.592Z,0.82
2022-12-24T00:13:17.739Z,0.79
2022-12-24T00:15:48.052Z,0.78
2022-12-24T00:18:20.846Z,0.78
2022-12-24T00:20:51.273Z,0.76
2022-12-24T00:23:21.786Z,0.75
2022-12-24T00:25:52.460Z,0.75
2022-12-24T00:28:23.390Z,0.75
2022-12-24T00:30:53.626Z,0.75
2022-12-24T00:33:26.409Z,0.75
2022-12-24T00:35:56.444Z,0.77
2022-12-24T00:38:26.557Z,0.78
2022-12-24T00:41:00.938Z,0.78
2022-12-24T00:43:31.370Z,0.79
2022-12-24T00:46:01.611Z,0.79
2022-12-24T00:48:34.501Z,0.76
2022-12-24T00:51:04.719Z,0.74
2022-12-24T00:53:34.907Z,0.72
2022-12-24T00:56:05.116Z,0.72
2022-12-24T00:58:35.210Z,0.71
2022-12-24T01:01:05.520Z,0.68
2022-12-24T01:03:38.415Z,0.71
2022-12-24T01:06:07.263Z,0.71
2022-12-24T01:08:37.777Z,0.70
2022-12-24T01:11:08.594Z,0.57
2022-12-24T01:13:39.185Z,0.48
2022-12-24T01:16:16.557Z,0.41
2022-12-24T01:18:49.330Z,0.33
2022-12-24T01:21:19.706Z,0.19
2022-12-24T01:23:49.845Z,0.23
2022-12-24T01:26:19.929Z,0.22
2022-12-24T01:28:50.295Z,0.07
2022-12-24T01:33:22.370Z,-0.28
2022-12-24T01:35:52.910Z,-0.51
2022-12-24T01:38:23.432Z,-0.71
2022-12-24T01:41:06.246Z,-0.81
2022-12-24T01:43:37.312Z,-0.78
2022-12-24T01:46:11.170Z,-0.75
2022-12-24T01:48:48.311Z,-0.63
2022-12-24T01:51:25.923Z,-0.62
2022-12-24T01:54:00.647Z,-0.63
2022-12-24T01:56:33.869Z,-0.54
2022-12-24T01:59:09.910Z,-0.50
2022-12-24T02:01:40.941Z,-0.43
2022-12-24T02:04:20.528Z,-0.49
2022-12-24T02:06:51.015Z,-0.45
2022-12-24T02:09:21.868Z,-0.43
2022-12-24T02:11:52.782Z,-0.42
2022-12-24T02:14:23.872Z,-0.48
2022-12-24T02:17:03.203Z,-0.52
2022-12-24T02:20:14.359Z,-0.46
2022-12-24T02:23:05.293Z,-0.42
2022-12-24T02:26:01.392Z,-0.36
2022-12-24T02:28:49.816Z,-0.29
2022-12-24T02:31:29.111Z,-0.32
2022-12-24T02:34:07.152Z,-0.22
2022-12-24T02:36:42.407Z,-0.22
2022-12-24T02:39:17.287Z,-0.17
2022-12-24T02:42:09.680Z,-0.14
2022-12-24T02:44:45.614Z,-0.14
2022-12-24T02:47:22.042Z,-0.11
2022-12-24T02:49:52.832Z,-0.13
2022-12-24T02:52:34.410Z,-0.11
2022-12-24T02:55:15.363Z,-0.11
2022-12-24T02:58:00.098Z,-0.09
2022-12-24T03:00:33.255Z,-0.10
2022-12-24T03:03:23.220Z,-0.10
2022-12-24T03:06:00.253Z,-0.11
2022-12-24T03:08:40.603Z,-0.13
2022-12-24T03:11:14.054Z,-0.11
2022-12-24T03:13:45.520Z,-0.24
2022-12-24T03:16:20.090Z,-0.15
2022-12-24T03:18:56.369Z,-0.16
2022-12-24T03:21:31.198Z,-0.16
2022-12-24T03:24:02.520Z,-0.17
2022-12-24T03:26:35.673Z,-0.17
2022-12-24T03:29:08.590Z,-0.17
2022-12-24T03:31:47.164Z,-0.18
2022-12-24T03:34:21.168Z,-0.24
2022-12-24T03:36:53.306Z,-0.21
2022-12-24T03:39:24.094Z,-0.25
2022-12-24T03:41:54.642Z,-0.25
2022-12-24T03:44:25.241Z,-0.25
2022-12-24T03:46:55.701Z,-0.27
2022-12-24T03:49:28.940Z,-0.28
2022-12-24T03:51:59.527Z,-0.28
2022-12-24T03:54:30.271Z,-0.30
2022-12-24T03:57:00.746Z,-0.33
2022-12-24T03:59:31.308Z,-0.34
2022-12-24T04:02:01.912Z,-0.38
2022-12-24T04:04:39.544Z,-0.41
2022-12-24T04:07:10.768Z,-0.42
2022-12-24T04:09:41.452Z,-0.42
2022-12-24T04:12:12.341Z,-0.42
2022-12-24T04:14:42.947Z,-0.42
2022-12-24T04:17:13.335Z,-0.43
2022-12-24T04:19:46.734Z,-0.45
2022-12-24T04:22:17.272Z,-0.48
2022-12-24T04:24:47.838Z,-0.52
2022-12-24T04:27:18.632Z,-0.55
2022-12-24T04:29:49.329Z,-0.59
2022-12-24T04:32:20.068Z,-0.59
2022-12-24T04:34:53.304Z,-0.60
2022-12-24T04:37:23.960Z,-0.61
2022-12-24T04:39:54.578Z,-0.61
2022-12-24T04:42:25.117Z,-0.61
2022-12-24T04:44:55.668Z,-0.61
2022-12-24T04:47:26.107Z,-0.58
2022-12-24T04:49:59.515Z,-0.58
2022-12-24T04:52:30.229Z,-0.58
2022-12-24T04:55:00.836Z,-0.59
2022-12-24T04:57:31.524Z,-0.58
2022-12-24T05:00:02.250Z,-0.58
2022-12-24T05:02:34.153Z,-0.58
2022-12-24T05:05:07.987Z,-0.56
2022-12-24T05:07:38.594Z,-0.54
2022-12-24T05:10:11.288Z,-0.54
2022-12-24T05:12:42.838Z,-0.53
2022-12-24T05:15:13.418Z,-0.52
2022-12-24T05:17:44.247Z,-0.54
2022-12-24T05:20:17.593Z,-0.58
2022-12-24T05:23:00.371Z,-0.62
2022-12-24T05:25:48.693Z,-0.65
2022-12-24T05:28:19.289Z,-0.67
2022-12-24T05:30:50.107Z,-0.70
2022-12-24T05:33:20.545Z,-0.72
2022-12-24T05:35:54.746Z,-0.74
2022-12-24T05:38:25.153Z,-0.74
2022-12-24T05:40:55.801Z,-0.72
2022-12-24T05:43:26.209Z,-0.71
2022-12-24T05:46:01.643Z,-0.70
2022-12-24T05:48:32.891Z,-0.74
2022-12-24T05:51:08.173Z,-0.70
2022-12-24T05:53:39.667Z,-0.70
2022-12-24T05:56:12.869Z,-0.67
2022-12-24T05:58:44.961Z,-0.68
2022-12-24T06:01:16.200Z,-0.65
2022-12-24T06:03:47.209Z,-0.64
2022-12-24T06:06:22.985Z,-0.62
2022-12-24T06:08:54.628Z,-0.60
2022-12-24T06:11:28.136Z,-0.57
2022-12-24T06:13:59.210Z,-0.60
2022-12-24T06:16:30.406Z,-0.54
2022-12-24T06:19:01.003Z,-0.52
2022-12-24T06:21:34.346Z,-0.50
2022-12-24T06:24:05.221Z,-0.50
2022-12-24T06:26:35.744Z,-0.46
2022-12-24T06:29:06.303Z,-0.44
2022-12-24T06:31:36.847Z,-0.51
2022-12-24T06:34:07.512Z,-0.39
2022-12-24T06:36:40.939Z,-0.37
2022-12-24T06:39:11.562Z,-0.31
2022-12-24T06:41:42.197Z,-0.30
2022-12-24T06:44:13.096Z,-0.26
2022-12-24T06:46:43.679Z,-0.20
2022-12-24T06:49:14.437Z,-0.18
2022-12-24T06:51:47.552Z,-0.11
2022-12-24T06:54:18.245Z,-0.04
2022-12-24T06:56:48.785Z,0.07
2022-12-24T06:59:19.385Z,0.17
2022-12-24T07:01:50.000Z,0.25
2022-12-24T07:04:20.967Z,0.33
2022-12-24T07:06:54.305Z,0.44
2022-12-24T07:09:24.904Z,0.54
2022-12-24T07:11:55.405Z,0.65
2022-12-24T07:14:25.977Z,0.72
2022-12-24T07:16:59.400Z,0.85
2022-12-24T07:19:30.063Z,0.96
2022-12-24T07:22:03.949Z,1.06
2022-12-24T07:24:34.460Z,1.15
2022-12-24T07:27:04.978Z,1.27
2022-12-24T07:29:37.293Z,1.38
2022-12-24T07:32:08.793Z,1.48
2022-12-24T07:34:39.994Z,1.58
2022-12-24T07:37:13.163Z,1.74
2022-12-24T07:39:43.910Z,1.89
2022-12-24T07:42:14.597Z,2.06
2022-12-24T07:44:45.191Z,2.26
2022-12-24T07:47:15.767Z,2.48
2022-12-24T07:49:46.420Z,2.78
2022-12-24T07:52:20.043Z,3.04
2022-12-24T07:54:50.701Z,3.34
2022-12-24T07:57:21.507Z,3.56
2022-12-24T07:59:52.107Z,3.74
2022-12-24T08:02:22.799Z,3.90
2022-12-24T08:04:53.484Z,4.12
2022-12-24T08:07:26.667Z,4.31
2022-12-24T08:09:57.438Z,4.54
2022-12-24T08:12:28.045Z,4.74
2022-12-24T08:14:58.676Z,4.96
2022-12-24T08:17:32.371Z,5.16
2022-12-24T08:20:03.439Z,5.34
2022-12-24T08:22:36.747Z,5.48
2022-12-24T08:25:07.829Z,5.57
2022-12-24T08:27:38.797Z,5.59
2022-12-24T08:30:13.749Z,5.60
2022-12-24T08:32:48.039Z,5.58
2022-12-24T08:35:18.799Z,5.56
2022-12-24T08:37:52.001Z,5.57
2022-12-24T08:40:22.675Z,5.57
2022-12-24T08:42:53.282Z,5.60
2022-12-24T08:45:24.645Z,5.62
2022-12-24T08:47:55.236Z,5.66
2022-12-24T08:50:25.780Z,5.72
2022-12-24T08:52:58.993Z,5.78
2022-12-24T08:55:30.913Z,5.82
2022-12-24T08:58:03.657Z,5.80
2022-12-24T09:00:34.602Z,5.91
2022-12-24T09:03:05.187Z,5.96
2022-12-24T09:05:35.735Z,6.01
2022-12-24T09:08:08.835Z,6.08
2022-12-24T09:10:39.361Z,6.14
2022-12-24T09:13:09.903Z,6.23
2022-12-24T09:15:40.571Z,6.31
2022-12-24T09:18:11.113Z,6.38
2022-12-24T09:20:46.743Z,6.46
2022-12-24T09:23:20.183Z,6.54
2022-12-24T09:25:50.709Z,6.61
2022-12-24T09:28:21.233Z,6.71
2022-12-24T09:31:02.460Z,6.79
2022-12-24T09:33:34.506Z,6.89
2022-12-24T09:36:05.487Z,6.66
2022-12-24T09:38:40.357Z,6.09
2022-12-24T09:41:19.392Z,5.44
2022-12-24T09:43:52.443Z,4.84
2022-12-24T09:46:28.113Z,4.45
2022-12-24T09:49:05.519Z,4.17
2022-12-24T09:51:42.609Z,3.98
2022-12-24T09:54:22.057Z,4.17
2022-12-24T09:56:52.985Z,4.35
2022-12-24T09:59:26.792Z,4.56
2022-12-24T10:01:58.379Z,4.79
2022-12-24T10:04:34.654Z,5.04
2022-12-24T10:07:14.322Z,5.30
2022-12-24T10:09:57.288Z,5.57
2022-12-24T10:12:36.149Z,5.82
2022-12-24T10:15:15.543Z,6.02
2022-12-24T10:17:59.591Z,6.23
2022-12-24T10:20:42.498Z,6.33
2022-12-24T10:23:22.648Z,6.37
2022-12-24T10:26:05.717Z,6.30
2022-12-24T10:28:45.668Z,6.20
2022-12-24T10:31:17.538Z,6.13
2022-12-24T10:33:52.804Z,6.20
2022-12-24T10:36:28.888Z,6.34
2022-12-24T10:39:00.253Z,6.35
2022-12-24T10:41:35.251Z,6.28
2022-12-24T10:44:07.844Z,6.20
2022-12-24T10:46:42.333Z,6.15
2022-12-24T10:49:18.672Z,6.24
2022-12-24T10:51:54.375Z,6.40
2022-12-24T10:54:27.806Z,6.42
2022-12-24T10:57:03.787Z,6.36
2022-12-24T10:59:34.847Z,6.45
2022-12-24T11:02:06.173Z,6.53
2022-12-24T11:04:50.677Z,6.48
2022-12-24T11:07:23.811Z,6.31
2022-12-24T11:09:59.787Z,6.21
2022-12-24T11:12:34.987Z,6.27
2022-12-24T11:15:08.412Z,6.41
2022-12-24T11:17:39.336Z,6.40
2022-12-24T11:20:19.935Z,6.31
2022-12-24T11:22:52.804Z,6.29
2022-12-24T11:25:26.061Z,6.50
2022-12-24T11:27:59.817Z,6.49
2022-12-24T11:30:33.933Z,6.41
2022-12-24T11:33:22.233Z,6.28
2022-12-24T11:35:57.462Z,6.30
2022-12-24T11:38:30.113Z,6.42
2022-12-24T11:41:12.464Z,6.45
2022-12-24T11:43:51.708Z,6.38
2022-12-24T11:46:39.697Z,6.49
2022-12-24T11:49:20.444Z,6.61
2022-12-24T11:52:14.529Z,6.47
2022-12-24T11:54:54.690Z,6.28
2022-12-24T11:57:31.327Z,6.44
2022-12-24T12:00:05.113Z,6.47
2022-12-24T12:02:40.015Z,6.39
2022-12-24T12:05:14.670Z,6.52
2022-12-24T12:07:49.015Z,6.58
2022-12-24T12:10:24.241Z,6.33
2022-12-24T12:13:02.891Z,5.81
2022-12-24T12:15:38.244Z,5.41
2022-12-24T12:18:12.939Z,5.21
2022-12-24T12:20:46.697Z,5.09
2022-12-24T12:23:23.558Z,5.02
2022-12-24T12:25:58.072Z,4.97
2022-12-24T12:28:35.354Z,5.02
2022-12-24T12:31:17.357Z,5.16
2022-12-24T12:33:53.206Z,5.30
2022-12-24T12:36:28.768Z,5.41
2022-12-24T12:38:58.875Z,5.49
2022-12-24T12:41:45.981Z,5.54
2022-12-24T12:44:42.607Z,5.56
2022-12-24T12:47:30.327Z,5.54
2022-12-24T12:50:12.486Z,5.50
2022-12-24T12:52:57.816Z,5.51
2022-12-24T12:55:41.618Z,5.52
2022-12-24T12:58:20.515Z,5.53
2022-12-24T13:00:58.353Z,5.48
2022-12-24T13:04:09.997Z,5.47
2022-12-24T13:07:06.152Z,5.47
2022-12-24T13:10:04.410Z,5.44
2022-12-24T13:12:46.016Z,5.42
2022-12-24T13:15:46.855Z,5.39
2022-12-24T13:18:47.212Z,5.38
2022-12-24T13:21:25.315Z,5.42
2022-12-24T13:24:08.865Z,5.45
2022-12-24T13:26:39.334Z,5.47
2022-12-24T13:29:41.736Z,5.49
2022-12-24T13:32:42.026Z,5.50
2022-12-24T13:35:45.106Z,5.50
2022-12-24T13:38:46.421Z,5.50
2022-12-24T13:42:01.189Z,5.61
2022-12-24T13:44:38.503Z,5.62
2022-12-24T13:47:32.066Z,5.61
2022-12-24T13:50:24.175Z,5.61
2022-12-24T13:52:56.786Z,5.60
2022-12-24T13:55:30.259Z,5.57
2022-12-24T13:58:02.968Z,5.49
2022-12-24T14:00:40.745Z,5.43
2022-12-24T14:03:25.870Z,5.34
2022-12-24T14:05:58.652Z,5.30
2022-12-24T14:08:34.822Z,5.23
2022-12-24T14:11:15.660Z,5.23
2022-12-24T14:14:14.980Z,5.27
2022-12-24T14:16:52.371Z,5.26
2022-12-24T14:19:26.034Z,5.18
2022-12-24T14:22:02.252Z,5.04
2022-12-24T14:24:37.872Z,5.01
2022-12-24T14:27:17.767Z,4.97
2022-12-24T14:29:53.561Z,4.91
2022-12-24T14:32:24.796Z,4.94
2022-12-24T14:35:09.603Z,4.92
2022-12-24T14:37:41.354Z,4.94
2022-12-24T14:40:18.997Z,4.96
2022-12-24T14:43:01.116Z,5.00
2022-12-24T14:45:40.820Z,5.04
2022-12-24T14:48:19.290Z,5.01
2022-12-24T14:51:04.653Z,4.94
2022-12-24T14:53:51.315Z,4.86
2022-12-24T14:56:24.321Z,4.81
2022-12-24T14:58:59.360Z,4.86
2022-12-24T15:01:34.441Z,4.91
2022-12-24T15:04:07.478Z,4.91
2022-12-24T15:06:40.859Z,4.92
2022-12-24T15:09:20.500Z,4.89
2022-12-24T15:11:53.694Z,4.83
2022-12-24T15:14:28.219Z,4.87
2022-12-24T15:17:01.833Z,4.87
2022-12-24T15:19:37.816Z,4.68
2022-12-24T15:22:13.959Z,4.44
2022-12-24T15:24:49.420Z,4.19
2022-12-24T15:27:21.851Z,4.03
2022-12-24T15:29:56.763Z,3.84
2022-12-24T15:32:27.636Z,3.77
2022-12-24T15:35:00.485Z,3.52
2022-12-24T15:37:32.813Z,3.59
2022-12-24T15:40:10.854Z,3.56
2022-12-24T15:42:45.708Z,3.53
2022-12-24T15:45:27.223Z,3.56
2022-12-24T15:48:01.574Z,3.60
2022-12-24T15:50:34.565Z,3.62
2022-12-24T15:53:20.044Z,3.62
2022-12-24T15:56:05.698Z,3.63
2022-12-24T15:58:38.224Z,3.62
2022-12-24T16:01:29.878Z,3.60
2022-12-24T16:04:02.553Z,3.61
2022-12-24T16:07:02.124Z,3.63
2022-12-24T16:09:44.524Z,3.62
2022-12-24T16:12:19.262Z,3.88
2022-12-24T16:14:56.234Z,4.08
2022-12-24T16:17:32.637Z,4.29
2022-12-24T16:20:09.218Z,4.45
2022-12-24T16:22:42.135Z,4.63
2022-12-24T16:25:26.973Z,4.75
2022-12-24T16:28:00.569Z,4.91
2022-12-24T16:30:31.921Z,5.03
2022-12-24T16:33:05.273Z,5.12
2022-12-24T16:35:39.463Z,5.22
2022-12-24T16:38:10.000Z,5.31
2022-12-24T16:40:40.555Z,5.39
2022-12-24T16:43:23.449Z,5.46
2022-12-24T16:45:54.343Z,5.55
2022-12-24T16:48:28.766Z,5.61
2022-12-24T16:50:59.484Z,5.68
2022-12-24T16:53:30.027Z,5.73
2022-12-24T16:56:00.727Z,5.80
2022-12-24T16:58:31.354Z,5.82
2022-12-24T17:01:02.237Z,5.87
2022-12-24T17:03:35.519Z,5.91
2022-12-24T17:06:09.609Z,5.93
2022-12-24T17:08:40.397Z,5.95
2022-12-24T17:11:10.990Z,5.98
2022-12-24T17:13:41.828Z,6.00
2022-12-24T17:16:12.696Z,6.03
2022-12-24T17:18:46.115Z,6.06
2022-12-24T17:21:17.498Z,6.07
2022-12-24T17:23:48.778Z,6.05
2022-12-24T17:26:19.382Z,6.12
2022-12-24T17:28:50.070Z,6.05
2022-12-24T17:31:21.036Z,6.01
2022-12-24T17:33:55.214Z,6.00
2022-12-24T17:36:26.147Z,5.86
2022-12-24T17:38:56.796Z,5.82
2022-12-24T17:41:27.404Z,5.70
2022-12-24T17:43:58.102Z,5.71
2022-12-24T17:46:28.957Z,5.60
2022-12-24T17:49:02.356Z,5.69
2022-12-24T17:51:37.745Z,5.67
2022-12-24T17:54:12.568Z,5.70
2022-12-24T17:56:43.203Z,5.66
2022-12-24T17:59:14.315Z,5.60
2022-12-24T18:01:45.239Z,5.57
2022-12-24T18:04:18.817Z,5.53
2022-12-24T18:06:50.793Z,5.42
2022-12-24T18:09:22.626Z,5.19
2022-12-24T18:11:53.207Z,5.17
2022-12-24T18:14:23.785Z,5.19
2022-12-24T18:16:54.316Z,5.27
2022-12-24T18:19:27.581Z,5.35
2022-12-24T18:21:58.094Z,5.33
2022-12-24T18:24:28.890Z,5.41
2022-12-24T18:26:59.476Z,5.47
2022-12-24T18:29:30.176Z,5.43
2022-12-24T18:32:00.815Z,5.28
2022-12-24T18:34:34.232Z,5.00
2022-12-24T18:37:04.704Z,4.54
2022-12-24T18:39:35.461Z,4.10
2022-12-24T18:42:05.992Z,3.75
2022-12-24T18:44:36.635Z,3.61
2022-12-24T18:47:07.265Z,3.54
2022-12-24T18:49:41.053Z,3.57
2022-12-24T18:52:16.590Z,3.70
2022-12-24T18:54:52.599Z,3.87
2022-12-24T18:57:23.178Z,3.97
2022-12-24T18:59:53.848Z,3.82
2022-12-24T19:02:24.610Z,3.56
2022-12-24T19:04:58.264Z,3.43
2022-12-24T19:07:29.001Z,3.29
2022-12-24T19:09:59.756Z,3.25
2022-12-24T19:12:30.194Z,3.19
2022-12-24T19:15:01.633Z,3.10
2022-12-24T19:17:33.657Z,3.03
2022-12-24T19:20:07.509Z,3.31
2022-12-24T19:22:38.372Z,3.52
2022-12-24T19:25:10.319Z,3.68
2022-12-24T19:27:40.832Z,3.93
2022-12-24T19:30:13.666Z,4.12
2022-12-24T19:32:44.183Z,4.27
2022-12-24T19:35:17.442Z,4.44
2022-12-24T19:37:47.974Z,4.57
2022-12-24T19:40:18.681Z,4.70
2022-12-24T19:42:50.390Z,4.80
2022-12-24T19:45:21.073Z,4.93
2022-12-24T19:47:53.015Z,5.02
2022-12-24T19:50:26.289Z,5.12
2022-12-24T19:52:57.058Z,5.19
2022-12-24T19:55:27.778Z,5.24
2022-12-24T19:57:58.325Z,5.34
2022-12-24T20:00:28.923Z,5.40
2022-12-24T20:02:59.628Z,5.43
2022-12-24T20:05:33.244Z,5.47
2022-12-24T20:08:04.131Z,5.46
2022-12-24T20:10:34.706Z,5.56
2022-12-24T20:13:06.314Z,5.59
2022-12-24T20:15:41.711Z,5.62
2022-12-24T20:18:13.719Z,5.60
2022-12-24T20:20:46.971Z,5.50
2022-12-24T20:23:17.480Z,5.52
2022-12-24T20:25:48.247Z,5.22
2022-12-24T20:28:18.650Z,4.80
2022-12-24T20:30:49.241Z,4.48
2022-12-24T20:33:19.793Z,4.29
2022-12-24T20:35:54.315Z,4.20
2022-12-24T20:38:25.064Z,4.18
2022-12-24T20:40:59.842Z,4.30
2022-12-24T20:43:36.123Z,4.41
2022-12-24T20:46:09.703Z,4.42
2022-12-24T20:48:41.980Z,4.39
2022-12-24T20:51:23.648Z,4.28
2022-12-24T20:53:55.485Z,4.29
2022-12-24T20:56:26.516Z,4.28
2022-12-24T20:58:58.562Z,4.27
2022-12-24T21:01:29.940Z,4.23
2022-12-24T21:04:05.761Z,4.24
2022-12-24T21:06:41.107Z,4.21
2022-12-24T21:09:11.967Z,4.19
2022-12-24T21:11:55.039Z,4.21
2022-12-24T21:14:27.703Z,4.19
2022-12-24T21:16:58.582Z,4.23
2022-12-24T21:19:29.212Z,4.19
2022-12-24T21:22:03.106Z,4.08
2022-12-24T21:24:33.572Z,4.07
2022-12-24T21:27:04.144Z,4.08
2022-12-24T21:29:34.681Z,4.05
2022-12-24T21:32:05.294Z,4.05
2022-12-24T21:34:35.888Z,4.14
2022-12-24T21:37:09.163Z,4.14
2022-12-24T21:39:39.656Z,4.21
2022-12-24T21:42:10.292Z,4.28
2022-12-24T21:44:41.086Z,4.31
2022-12-24T21:47:11.814Z,4.38
2022-12-24T21:49:54.824Z,4.39
2022-12-24T21:52:28.212Z,4.40
2022-12-24T21:54:56.114Z,4.40
2022-12-24T21:57:38.872Z,4.42
2022-12-24T22:00:27.161Z,4.43
2022-12-24T22:02:59.988Z,4.39
2022-12-24T22:05:30.746Z,4.37
2022-12-24T22:08:16.883Z,4.31
2022-12-24T22:10:59.748Z,4.39
2022-12-24T22:13:32.737Z,4.38
2022-12-24T22:16:03.149Z,4.39
2022-12-24T22:18:33.675Z,4.37
2022-12-24T22:21:05.826Z,4.35
2022-12-24T22:23:42.632Z,4.37
2022-12-24T22:26:14.791Z,4.37
2022-12-24T22:28:45.713Z,4.35
2022-12-24T22:31:23.473Z,4.28
2022-12-24T22:33:54.420Z,4.28
2022-12-24T22:36:24.948Z,4.25
2022-12-24T22:38:58.116Z,4.23
2022-12-24T22:41:28.644Z,4.21
2022-12-24T22:43:59.225Z,4.20
2022-12-24T22:46:29.685Z,4.14
2022-12-24T22:49:00.363Z,4.14
2022-12-24T22:51:31.684Z,4.11
2022-12-24T22:54:04.971Z,4.04
2022-12-24T22:56:40.674Z,3.99
2022-12-24T22:59:15.586Z,3.93
2022-12-24T23:01:48.845Z,3.81
2022-12-24T23:04:19.598Z,3.75
2022-12-24T23:06:50.113Z,3.83
2022-12-24T23:09:23.688Z,3.92
2022-12-24T23:11:54.051Z,4.01
2022-12-24T23:14:37.695Z,4.11
2022-12-24T23:17:08.234Z,4.21
2022-12-24T23:19:39.271Z,4.29
2022-12-24T23:22:10.570Z,4.38
2022-12-24T23:24:43.726Z,4.48
2022-12-24T23:27:14.277Z,4.57
2022-12-24T23:29:44.878Z,4.65
2022-12-24T23:32:15.426Z,4.77
2022-12-24T23:34:46.112Z,4.82
2022-12-24T23:37:16.664Z,4.89
2022-12-24T23:39:49.913Z,4.94
2022-12-24T23:42:20.419Z,5.02
2022-12-24T23:44:51.666Z,5.07
2022-12-24T23:47:22.320Z,5.13
2022-12-24T23:49:53.059Z,5.20
2022-12-24T23:52:23.473Z,5.25
2022-12-24T23:54:56.742Z,5.32
2022-12-24T23:57:27.215Z,5.39
2022-12-24T23:59:57.810Z,5.46
